Temp: 12.8°C   Baro: 1022.5mb
  Wind: 0.0mph   Dir: NE (54°)
  Rain: 0.0mm (0.0mm/hr)
  Solar: 0W/m2  Hum: 82%

Historic data

Bath Spa Weather Station Historical Data
Daily Summary for September 18, 2019 Units:  Both    English   Metric
Daily Weekly Monthly Yearly Custom
  High: Low: Average:
Temperature: 58.8 °F /  14.9 °C 46.6 °F /  8.1 °C 52.6 °F /  11.4 °C
Dew Point: 49.8 °F /  9.9 °C 44.6 °F /  7 °C 47.5 °F /  8.6 °C
Humidity: 93% 70% 83%
Wind Speed: 14.7mph /  23.7km/h - 5.7mph /  9.2km/h
Wind Gust: 25mph /  40.2km/h - -
Wind- - SW
Pressure: 29.51 in /  999.2 hPa 29.44 in /  996.8 hPa -
Precipitation: 0.10 in /  2.54 mm    
Historical Graphs
 
 
Tabular Data for September 18, 2019
Time Temperature Dew Point Pressure Wind Wind Speed Wind Gust Humidity Rainfall Rate (Hourly) solar
00:04 52.5 °F /  11.4 °C 48.5 °F /  9.2 °C 29.49in /  998.5hPa South 9.1mph /  14.6km/h 16mph /  25.7km/h 86.3% 0.00in /  0mm 0 W/m2
00:09 52.5 °F /  11.4 °C 48.4 °F /  9.1 °C 29.48in /  998.2hPa South 4.8mph /  7.7km/h 15mph /  24.1km/h 85.9% 0.00in /  0mm 0 W/m2
00:14 52.4 °F /  11.3 °C 48.3 °F /  9.1 °C 29.48in /  998.2hPa South 4.6mph /  7.4km/h 10mph /  16.1km/h 86% 0.00in /  0mm 0 W/m2
00:19 52.3 °F /  11.3 °C 48.2 °F /  9 °C 29.48in /  998.2hPa South 6.1mph /  9.8km/h 10mph /  16.1km/h 86% 0.00in /  0mm 0 W/m2
00:24 52.3 °F /  11.3 °C 48.1 °F /  8.9 °C 29.48in /  998.2hPa South 6.9mph /  11.1km/h 12mph /  19.3km/h 85.5% 0.00in /  0mm 0 W/m2
00:29 52.3 °F /  11.3 °C 48 °F /  8.9 °C 29.47in /  997.9hPa SSW 6.9mph /  11.1km/h 13mph /  20.9km/h 85% 0.00in /  0mm 0 W/m2
00:34 52.2 °F /  11.2 °C 47.8 °F /  8.8 °C 29.47in /  997.9hPa South 3.3mph /  5.3km/h 10mph /  16.1km/h 85% 0.00in /  0mm 0 W/m2
00:39 52.2 °F /  11.2 °C 47.8 °F /  8.8 °C 29.47in /  997.9hPa South 7.2mph /  11.6km/h 11mph /  17.7km/h 85% 0.00in /  0mm 0 W/m2
00:44 52.2 °F /  11.2 °C 47.8 °F /  8.8 °C 29.47in /  997.9hPa South 6.5mph /  10.5km/h 10mph /  16.1km/h 85% 0.00in /  0mm 0 W/m2
00:49 52.1 °F /  11.2 °C 47.8 °F /  8.8 °C 29.47in /  997.9hPa South 5.8mph /  9.3km/h 11mph /  17.7km/h 85% 0.00in /  0mm 0 W/m2
00:54 52 °F /  11.1 °C 47.7 °F /  8.7 °C 29.47in /  997.9hPa SSE 4.9mph /  7.9km/h 9mph /  14.5km/h 85.3% 0.00in /  0mm 0 W/m2
00:59 51.9 °F /  11.1 °C 47.7 °F /  8.7 °C 29.47in /  997.9hPa SSE 5.5mph /  8.9km/h 11mph /  17.7km/h 86% 0.00in /  0mm 0 W/m2
01:04 51.7 °F /  10.9 °C 47.6 °F /  8.7 °C 29.47in /  997.9hPa SSE 6.8mph /  10.9km/h 12mph /  19.3km/h 86% 0.00in /  0mm 0 W/m2
01:09 51.6 °F /  10.9 °C 47.5 °F /  8.6 °C 29.46in /  997.5hPa SSE 8.4mph /  13.5km/h 14mph /  22.5km/h 86% 0.00in /  0mm 0 W/m2
01:14 51.4 °F /  10.8 °C 47.7 °F /  8.7 °C 29.46in /  997.5hPa SSE 5.1mph /  8.2km/h 14mph /  22.5km/h 86.8% 0.01in /  0.25mm 0 W/m2
01:19 51.3 °F /  10.7 °C 47.6 °F /  8.7 °C 29.46in /  997.5hPa South 5.5mph /  8.9km/h 11mph /  17.7km/h 87% 0.01in /  0.25mm 0 W/m2
01:24 51.3 °F /  10.7 °C 47.7 °F /  8.7 °C 29.46in /  997.5hPa SSE 6.6mph /  10.6km/h 13mph /  20.9km/h 87.8% 0.01in /  0.25mm 0 W/m2
01:29 51.3 °F /  10.7 °C 47.9 °F /  8.8 °C 29.46in /  997.5hPa South 7mph /  11.3km/h 13mph /  20.9km/h 88.1% 0.01in /  0.25mm 0 W/m2
01:34 51.3 °F /  10.7 °C 48.3 °F /  9.1 °C 29.45in /  997.2hPa SSE 6.7mph /  10.8km/h 14mph /  22.5km/h 89% 0.01in /  0.25mm 0 W/m2
01:39 51.4 °F /  10.8 °C 48.3 °F /  9.1 °C 29.45in /  997.2hPa South 3.5mph /  5.6km/h 14mph /  22.5km/h 89% 0.01in /  0.25mm 0 W/m2
01:44 51.4 °F /  10.8 °C 48.3 °F /  9.1 °C 29.45in /  997.2hPa South 5.3mph /  8.5km/h 11mph /  17.7km/h 89% 0.01in /  0.25mm 0 W/m2
01:49 51.4 °F /  10.8 °C 48.4 °F /  9.1 °C 29.44in /  996.8hPa South 5.9mph /  9.5km/h 13mph /  20.9km/h 89% 0.01in /  0.25mm 0 W/m2
01:54 51.6 °F /  10.9 °C 48.6 °F /  9.2 °C 29.45in /  997.2hPa South 6.2mph /  10km/h 11mph /  17.7km/h 89% 0.01in /  0.25mm 0 W/m2
01:59 51.6 °F /  10.9 °C 48.7 °F /  9.3 °C 29.45in /  997.2hPa SSW 6.8mph /  10.9km/h 13mph /  20.9km/h 89.8% 0.01in /  0.25mm 0 W/m2
02:04 51.5 °F /  10.8 °C 48.7 °F /  9.3 °C 29.44in /  996.8hPa South 4.8mph /  7.7km/h 10mph /  16.1km/h 90% 0.02in /  0.51mm 0 W/m2
02:09 51.4 °F /  10.8 °C 48.6 °F /  9.2 °C 29.44in /  996.8hPa South 6.4mph /  10.3km/h 11mph /  17.7km/h 90% 0.02in /  0.51mm 0 W/m2
02:14 51.4 °F /  10.8 °C 48.6 °F /  9.2 °C 29.44in /  996.8hPa SSW 5.5mph /  8.9km/h 11mph /  17.7km/h 90% 0.02in /  0.51mm 0 W/m2
02:19 51.4 °F /  10.8 °C 48.6 °F /  9.2 °C 29.44in /  996.8hPa SW 3.8mph /  6.1km/h 11mph /  17.7km/h 90% 0.02in /  0.51mm 0 W/m2
02:24 51.4 °F /  10.8 °C 48.5 °F /  9.2 °C 29.44in /  996.8hPa SW 3.8mph /  6.1km/h 8mph /  12.9km/h 89.9% 0.02in /  0.51mm 0 W/m2
02:29 51.3 °F /  10.7 °C 48.3 °F /  9.1 °C 29.44in /  996.8hPa SSW 2.6mph /  4.2km/h 7mph /  11.3km/h 89.3% 0.02in /  0.51mm 0 W/m2
02:34 51.3 °F /  10.7 °C 48.2 °F /  9 °C 29.44in /  996.8hPa SSW 4.7mph /  7.6km/h 10mph /  16.1km/h 89% 0.02in /  0.51mm 0 W/m2
02:39 51.3 °F /  10.7 °C 48.2 °F /  9 °C 29.44in /  996.8hPa SSW 3.3mph /  5.3km/h 9mph /  14.5km/h 89% 0.02in /  0.51mm 0 W/m2
02:44 51.1 °F /  10.6 °C 48 °F /  8.9 °C 29.44in /  996.8hPa SW 1.9mph /  3.1km/h 6mph /  9.7km/h 89% 0.02in /  0.51mm 0 W/m2
02:49 51.1 °F /  10.6 °C 48 °F /  8.9 °C 29.44in /  996.8hPa WSW 4.1mph /  6.6km/h 9mph /  14.5km/h 89% 0.02in /  0.51mm 0 W/m2
02:54 51 °F /  10.6 °C 47.9 °F /  8.8 °C 29.44in /  996.8hPa WSW 4mph /  6.4km/h 10mph /  16.1km/h 89% 0.02in /  0.51mm 0 W/m2
02:59 50.9 °F /  10.5 °C 47.8 °F /  8.8 °C 29.44in /  996.8hPa WSW 2.5mph /  4km/h 6mph /  9.7km/h 89% 0.03in /  0.76mm 0 W/m2
03:04 50.7 °F /  10.4 °C 47.7 °F /  8.7 °C 29.44in /  996.8hPa WSW 2.8mph /  4.5km/h 7mph /  11.3km/h 89% 0.02in /  0.51mm 0 W/m2
03:09 50.5 °F /  10.3 °C 47.5 °F /  8.6 °C 29.44in /  996.8hPa West 2.6mph /  4.2km/h 7mph /  11.3km/h 89% 0.02in /  0.51mm 0 W/m2
03:14 50.5 °F /  10.3 °C 47.5 °F /  8.6 °C 29.44in /  996.8hPa West 1.7mph /  2.7km/h 5mph /  8km/h 89.3% 0.02in /  0.51mm 0 W/m2
03:19 50.4 °F /  10.2 °C 47.5 °F /  8.6 °C 29.44in /  996.8hPa WSW 4mph /  6.4km/h 7mph /  11.3km/h 90% 0.02in /  0.51mm 0 W/m2
03:24 50.4 °F /  10.2 °C 47.5 °F /  8.6 °C 29.44in /  996.8hPa SW 2.8mph /  4.5km/h 6mph /  9.7km/h 90% 0.02in /  0.51mm 0 W/m2
03:29 50.4 °F /  10.2 °C 47.5 °F /  8.6 °C 29.44in /  996.8hPa SW 1.7mph /  2.7km/h 5mph /  8km/h 90% 0.02in /  0.51mm 0 W/m2
03:34 50.3 °F /  10.2 °C 47.4 °F /  8.6 °C 29.44in /  996.8hPa WSW 2.5mph /  4km/h 6mph /  9.7km/h 90% 0.02in /  0.51mm 0 W/m2
03:39 50.2 °F /  10.1 °C 47.3 °F /  8.5 °C 29.44in /  996.8hPa WSW 1.7mph /  2.7km/h 5mph /  8km/h 90% 0.02in /  0.51mm 0 W/m2
03:44 50.2 °F /  10.1 °C 47.3 °F /  8.5 °C 29.44in /  996.8hPa WSW 1.1mph /  1.8km/h 4mph /  6.4km/h 90% 0.02in /  0.51mm 0 W/m2
03:49 49.9 °F /  9.9 °C 47.3 °F /  8.5 °C 29.44in /  996.8hPa WSW 1.3mph /  2.1km/h 4mph /  6.4km/h 90.7% 0.02in /  0.51mm 0 W/m2
03:54 49.8 °F /  9.9 °C 47.3 °F /  8.5 °C 29.44in /  996.8hPa WSW 1.8mph /  2.9km/h 6mph /  9.7km/h 91% 0.02in /  0.51mm 0 W/m2
03:59 49.7 °F /  9.8 °C 47.2 °F /  8.4 °C 29.44in /  996.8hPa WSW 2.9mph /  4.7km/h 6mph /  9.7km/h 91% 0.02in /  0.51mm 0 W/m2
04:04 49.6 °F /  9.8 °C 47 °F /  8.3 °C 29.44in /  996.8hPa WSW 2.1mph /  3.4km/h 6mph /  9.7km/h 91% 0.02in /  0.51mm 0 W/m2
04:09 49.5 °F /  9.7 °C 46.9 °F /  8.3 °C 29.44in /  996.8hPa WSW 3.2mph /  5.1km/h 6mph /  9.7km/h 91% 0.02in /  0.51mm 0 W/m2
04:14 49.4 °F /  9.7 °C 46.9 °F /  8.3 °C 29.44in /  996.8hPa West 3.1mph /  5km/h 7mph /  11.3km/h 91% 0.01in /  0.25mm 0 W/m2
04:19 49.3 °F /  9.6 °C 46.8 °F /  8.2 °C 29.44in /  996.8hPa West 2.1mph /  3.4km/h 6mph /  9.7km/h 91% 0.01in /  0.25mm 0 W/m2
04:24 49.3 °F /  9.6 °C 46.8 °F /  8.2 °C 29.44in /  996.8hPa West 3.6mph /  5.8km/h 7mph /  11.3km/h 91% 0.00in /  0mm 0 W/m2
04:29 49.1 °F /  9.5 °C 46.6 °F /  8.1 °C 29.44in /  996.8hPa West 3.3mph /  5.3km/h 7mph /  11.3km/h 91% 0.00in /  0mm 0 W/m2
04:33 49.1 °F /  9.5 °C 46.6 °F /  8.1 °C 29.44in /  996.8hPa West 1.9mph /  3.1km/h 7mph /  11.3km/h 91% 0.00in /  0mm 0 W/m2
04:39 48.9 °F /  9.4 °C 46.4 °F /  8 °C 29.44in /  996.8hPa West 1.4mph /  2.3km/h 7mph /  11.3km/h 91% 0.00in /  0mm 0 W/m2
04:44 48.9 °F /  9.4 °C 46.4 °F /  8 °C 29.44in /  996.8hPa West 1mph /  1.6km/h 4mph /  6.4km/h 91% 0.00in /  0mm 0 W/m2
04:49 48.9 °F /  9.4 °C 46.4 °F /  8 °C 29.44in /  996.8hPa West 0.2mph /  0.3km/h 2mph /  3.2km/h 91% 0.00in /  0mm 0 W/m2
04:54 48.7 °F /  9.3 °C 46.4 °F /  8 °C 29.44in /  996.8hPa West 0.3mph /  0.5km/h 2mph /  3.2km/h 91.4% 0.00in /  0mm 0 W/m2
04:59 48.7 °F /  9.3 °C 46.5 °F /  8.1 °C 29.44in /  996.8hPa West 1mph /  1.6km/h 3mph /  4.8km/h 92% 0.00in /  0mm 0 W/m2
05:04 48.6 °F /  9.2 °C 46.4 °F /  8 °C 29.44in /  996.8hPa West 0.6mph /  1km/h 3mph /  4.8km/h 92% 0.00in /  0mm 0 W/m2
05:09 48.5 °F /  9.2 °C 46.3 °F /  7.9 °C 29.44in /  996.8hPa West 0.2mph /  0.3km/h 2mph /  3.2km/h 92% 0.00in /  0mm 0 W/m2
05:14 48.4 °F /  9.1 °C 46.2 °F /  7.9 °C 29.44in /  996.8hPa West 0.1mph /  0.2km/h 2mph /  3.2km/h 92% 0.00in /  0mm 0 W/m2
05:19 48.2 °F /  9 °C 46 °F /  7.8 °C 29.45in /  997.2hPa West 1.5mph /  2.4km/h 5mph /  8km/h 92% 0.00in /  0mm 0 W/m2
05:24 48 °F /  8.9 °C 45.9 °F /  7.7 °C 29.45in /  997.2hPa West 0.5mph /  0.8km/h 3mph /  4.8km/h 92% 0.00in /  0mm 0 W/m2
05:29 47.9 °F /  8.8 °C 45.8 °F /  7.7 °C 29.45in /  997.2hPa West 0.1mph /  0.2km/h 1mph /  1.6km/h 92% 0.00in /  0mm 0 W/m2
05:34 47.8 °F /  8.8 °C 45.7 °F /  7.6 °C 29.46in /  997.5hPa West 0.6mph /  1km/h 3mph /  4.8km/h 92% 0.00in /  0mm 0 W/m2
05:39 47.7 °F /  8.7 °C 45.5 °F /  7.5 °C 29.46in /  997.5hPa West 1.1mph /  1.8km/h 3mph /  4.8km/h 92% 0.00in /  0mm 0 W/m2
05:44 47.5 °F /  8.6 °C 45.3 °F /  7.4 °C 29.46in /  997.5hPa West 0.6mph /  1km/h 3mph /  4.8km/h 92% 0.00in /  0mm 0 W/m2
05:49 47.4 °F /  8.6 °C 45.2 °F /  7.3 °C 29.46in /  997.5hPa West 0.6mph /  1km/h 3mph /  4.8km/h 92% 0.00in /  0mm 0 W/m2
05:54 47.2 °F /  8.4 °C 45.1 °F /  7.3 °C 29.46in /  997.5hPa West 0.6mph /  1km/h 3mph /  4.8km/h 92% 0.00in /  0mm 0 W/m2
05:59 47.1 °F /  8.4 °C 45 °F /  7.2 °C 29.46in /  997.5hPa West 1.2mph /  1.9km/h 3mph /  4.8km/h 92% 0.00in /  0mm 0 W/m2
06:04 47.1 °F /  8.4 °C 45 °F /  7.2 °C 29.46in /  997.5hPa West 0.8mph /  1.3km/h 3mph /  4.8km/h 92% 0.00in /  0mm 0 W/m2
06:09 46.9 °F /  8.3 °C 44.8 °F /  7.1 °C 29.47in /  997.9hPa West 1.1mph /  1.8km/h 3mph /  4.8km/h 92% 0.00in /  0mm 0 W/m2
06:14 46.9 °F /  8.3 °C 44.9 °F /  7.2 °C 29.47in /  997.9hPa Calm   2mph /  3.2km/h 92.5% 0.00in /  0mm 0 W/m2
06:19 46.8 °F /  8.2 °C 44.8 °F /  7.1 °C 29.47in /  997.9hPa West 0.2mph /  0.3km/h 1mph /  1.6km/h 93% 0.00in /  0mm 0 W/m2
06:24 46.8 °F /  8.2 °C 44.8 °F /  7.1 °C 29.47in /  997.9hPa Calm   1mph /  1.6km/h 93% 0.00in /  0mm 0 W/m2
06:29 46.8 °F /  8.2 °C 44.8 °F /  7.1 °C 29.47in /  997.9hPa Calm     93% 0.00in /  0mm 0 W/m2
06:34 46.6 °F /  8.1 °C 44.6 °F /  7 °C 29.47in /  997.9hPa West 1.1mph /  1.8km/h 4mph /  6.4km/h 92.8% 0.00in /  0mm 0 W/m2
06:39 46.8 °F /  8.2 °C 44.8 °F /  7.1 °C 29.47in /  997.9hPa West 1.2mph /  1.9km/h 4mph /  6.4km/h 93% 0.00in /  0mm 0 W/m2
06:44 46.8 °F /  8.2 °C 44.9 °F /  7.2 °C 29.47in /  997.9hPa West 0.8mph /  1.3km/h 4mph /  6.4km/h 93% 0.00in /  0mm 0 W/m2
06:49 47.1 °F /  8.4 °C 45.1 °F /  7.3 °C 29.47in /  997.9hPa West 1.6mph /  2.6km/h 5mph /  8km/h 93% 0.00in /  0mm 0 W/m2
06:54 47.2 °F /  8.4 °C 45.2 °F /  7.3 °C 29.47in /  997.9hPa West 1.3mph /  2.1km/h 5mph /  8km/h 93% 0.00in /  0mm 0 W/m2
06:59 47.4 °F /  8.6 °C 45.4 °F /  7.4 °C 29.47in /  997.9hPa West 0.9mph /  1.4km/h 3mph /  4.8km/h 93% 0.00in /  0mm 0 W/m2
07:04 47.4 °F /  8.6 °C 45.4 °F /  7.4 °C 29.47in /  997.9hPa West 0.9mph /  1.4km/h 3mph /  4.8km/h 93% 0.00in /  0mm 0 W/m2
07:09 47.5 °F /  8.6 °C 45.5 °F /  7.5 °C 29.47in /  997.9hPa West 0.8mph /  1.3km/h 3mph /  4.8km/h 93% 0.00in /  0mm 0 W/m2
07:14 47.5 °F /  8.6 °C 45.5 °F /  7.5 °C 29.47in /  997.9hPa West 0.3mph /  0.5km/h 3mph /  4.8km/h 93% 0.01in /  0.25mm 0 W/m2
07:19 47.6 °F /  8.7 °C 45.6 °F /  7.6 °C 29.47in /  997.9hPa WSW 3.2mph /  5.1km/h 6mph /  9.7km/h 93% 0.01in /  0.25mm 0 W/m2
07:24 47.8 °F /  8.8 °C 45.8 °F /  7.7 °C 29.47in /  997.9hPa SW 3.2mph /  5.1km/h 6mph /  9.7km/h 93% 0.01in /  0.25mm 0 W/m2
07:29 47.8 °F /  8.8 °C 45.8 °F /  7.7 °C 29.48in /  998.2hPa SW 2.2mph /  3.5km/h 6mph /  9.7km/h 93% 0.01in /  0.25mm 0 W/m2
07:34 47.8 °F /  8.8 °C 45.8 °F /  7.7 °C 29.48in /  998.2hPa SW 4.8mph /  7.7km/h 9mph /  14.5km/h 93% 0.01in /  0.25mm 0 W/m2
07:39 47.8 °F /  8.8 °C 45.9 °F /  7.7 °C 29.48in /  998.2hPa SW 3.5mph /  5.6km/h 9mph /  14.5km/h 93% 0.01in /  0.25mm 0 W/m2
07:44 47.8 °F /  8.8 °C 45.9 °F /  7.7 °C 29.48in /  998.2hPa SW 3.8mph /  6.1km/h 9mph /  14.5km/h 93% 0.01in /  0.25mm 5 W/m2
07:49 47.8 °F /  8.8 °C 45.8 °F /  7.7 °C 29.47in /  997.9hPa SW 1.4mph /  2.3km/h 5mph /  8km/h 92.4% 0.01in /  0.25mm 9 W/m2
07:54 47.8 °F /  8.8 °C 45.7 °F /  7.6 °C 29.48in /  998.2hPa WSW 2.8mph /  4.5km/h 8mph /  12.9km/h 92% 0.01in /  0.25mm 14 W/m2
07:59 47.9 °F /  8.8 °C 45.8 °F /  7.7 °C 29.48in /  998.2hPa WSW 2.9mph /  4.7km/h 6mph /  9.7km/h 92% 0.01in /  0.25mm 25 W/m2
08:04 48 °F /  8.9 °C 45.9 °F /  7.7 °C 29.48in /  998.2hPa WSW 3.7mph /  6km/h 8mph /  12.9km/h 92% 0.01in /  0.25mm 39 W/m2
08:09 48.3 °F /  9.1 °C 46.1 °F /  7.8 °C 29.48in /  998.2hPa WSW 2.8mph /  4.5km/h 8mph /  12.9km/h 92% 0.01in /  0.25mm 67 W/m2
08:14 48.6 °F /  9.2 °C 46.4 °F /  8 °C 29.48in /  998.2hPa WSW 5.1mph /  8.2km/h 10mph /  16.1km/h 92% 0.01in /  0.25mm 76 W/m2
08:19 48.9 °F /  9.4 °C 46.6 °F /  8.1 °C 29.48in /  998.2hPa SW 5.8mph /  9.3km/h 10mph /  16.1km/h 91.7% 0.01in /  0.25mm 81 W/m2
08:24 49.3 °F /  9.6 °C 46.8 °F /  8.2 °C 29.48in /  998.2hPa WSW 6.8mph /  10.9km/h 11mph /  17.7km/h 91% 0.01in /  0.25mm 76 W/m2
08:29 49.4 °F /  9.7 °C 46.8 °F /  8.2 °C 29.48in /  998.2hPa WSW 5.2mph /  8.4km/h 11mph /  17.7km/h 90.8% 0.01in /  0.25mm 40 W/m2
08:34 49.3 °F /  9.6 °C 46.4 °F /  8 °C 29.48in /  998.2hPa West 3.7mph /  6km/h 8mph /  12.9km/h 90% 0.01in /  0.25mm 30 W/m2
08:39 49.3 °F /  9.6 °C 46.4 °F /  8 °C 29.48in /  998.2hPa WSW 3.2mph /  5.1km/h 8mph /  12.9km/h 90% 0.01in /  0.25mm 44 W/m2
08:44 49.1 °F /  9.5 °C 46.2 °F /  7.9 °C 29.48in /  998.2hPa West 3mph /  4.8km/h 8mph /  12.9km/h 90% 0.01in /  0.25mm 67 W/m2
08:49 49.1 °F /  9.5 °C 46.2 °F /  7.9 °C 29.48in /  998.2hPa West 3.1mph /  5km/h 7mph /  11.3km/h 90% 0.01in /  0.25mm 77 W/m2
08:54 49.2 °F /  9.6 °C 46.3 °F /  7.9 °C 29.48in /  998.2hPa WSW 3.9mph /  6.3km/h 10mph /  16.1km/h 90% 0.01in /  0.25mm 81 W/m2
08:59 49.3 °F /  9.6 °C 46.4 °F /  8 °C 29.48in /  998.2hPa WSW 3.3mph /  5.3km/h 10mph /  16.1km/h 89.9% 0.01in /  0.25mm 81 W/m2
09:04 49.4 °F /  9.7 °C 46.3 °F /  7.9 °C 29.48in /  998.2hPa WSW 3.5mph /  5.6km/h 8mph /  12.9km/h 89% 0.01in /  0.25mm 74 W/m2
09:09 49.4 °F /  9.7 °C 46.3 °F /  7.9 °C 29.48in /  998.2hPa West 0.9mph /  1.4km/h 6mph /  9.7km/h 89% 0.01in /  0.25mm 69 W/m2
09:14 49.5 °F /  9.7 °C 46.4 °F /  8 °C 29.49in /  998.5hPa WSW 4.3mph /  6.9km/h 10mph /  16.1km/h 89% 0.01in /  0.25mm 77 W/m2
09:19 49.7 °F /  9.8 °C 46.6 °F /  8.1 °C 29.49in /  998.5hPa WSW 4.2mph /  6.8km/h 10mph /  16.1km/h 88.8% 0.01in /  0.25mm 120 W/m2
09:24 50.3 °F /  10.2 °C 46.8 °F /  8.2 °C 29.49in /  998.5hPa WSW 4.3mph /  6.9km/h 9mph /  14.5km/h 87.9% 0.00in /  0mm 120 W/m2
09:29 50.6 °F /  10.3 °C 46.8 °F /  8.2 °C 29.49in /  998.5hPa WSW 8.1mph /  13km/h 14mph /  22.5km/h 86.9% 0.00in /  0mm 132 W/m2
09:34 51.1 °F /  10.6 °C 47 °F /  8.3 °C 29.49in /  998.5hPa WSW 6mph /  9.7km/h 14mph /  22.5km/h 85.7% 0.00in /  0mm 172 W/m2
09:39 51.3 °F /  10.7 °C 46.8 °F /  8.2 °C 29.49in /  998.5hPa WSW 7.7mph /  12.4km/h 17mph /  27.4km/h 84.6% 0.00in /  0mm 156 W/m2
09:44 51.3 °F /  10.7 °C 46.7 °F /  8.2 °C 29.49in /  998.5hPa SW 7.1mph /  11.4km/h 14mph /  22.5km/h 84% 0.00in /  0mm 218 W/m2
09:49 51.6 °F /  10.9 °C 46.9 °F /  8.3 °C 29.49in /  998.5hPa SW 3.5mph /  5.6km/h 10mph /  16.1km/h 83.9% 0.00in /  0mm 230 W/m2
09:54 52 °F /  11.1 °C 47.2 °F /  8.4 °C 29.49in /  998.5hPa SW 5.6mph /  9km/h 12mph /  19.3km/h 83.7% 0.00in /  0mm 209 W/m2
09:59 52.2 °F /  11.2 °C 47.1 °F /  8.4 °C 29.49in /  998.5hPa WSW 5mph /  8km/h 10mph /  16.1km/h 83% 0.00in /  0mm 220 W/m2
10:04 52.6 °F /  11.4 °C 47.6 °F /  8.7 °C 29.49in /  998.5hPa WSW 4.7mph /  7.6km/h 8mph /  12.9km/h 83% 0.00in /  0mm 232 W/m2
10:09 52.7 °F /  11.5 °C 47.4 °F /  8.6 °C 29.49in /  998.5hPa SW 6.3mph /  10.1km/h 10mph /  16.1km/h 82.3% 0.00in /  0mm 214 W/m2
10:14 52.9 °F /  11.6 °C 47.5 °F /  8.6 °C 29.49in /  998.5hPa SW 5.9mph /  9.5km/h 12mph /  19.3km/h 82% 0.00in /  0mm 253 W/m2
10:19 53 °F /  11.7 °C 47.6 °F /  8.7 °C 29.49in /  998.5hPa WSW 6.6mph /  10.6km/h 13mph /  20.9km/h 82% 0.00in /  0mm 220 W/m2
10:24 53.1 °F /  11.7 °C 47.7 °F /  8.7 °C 29.49in /  998.5hPa WSW 6.2mph /  10km/h 10mph /  16.1km/h 82% 0.00in /  0mm 174 W/m2
10:29 52.9 °F /  11.6 °C 47.5 °F /  8.6 °C 29.49in /  998.5hPa WSW 7.2mph /  11.6km/h 13mph /  20.9km/h 82% 0.00in /  0mm 153 W/m2
10:34 52.9 °F /  11.6 °C 47.5 °F /  8.6 °C 29.49in /  998.5hPa WSW 7.3mph /  11.7km/h 15mph /  24.1km/h 82% 0.00in /  0mm 135 W/m2
10:39 53.1 °F /  11.7 °C 47.7 °F /  8.7 °C 29.50in /  998.9hPa WSW 7.3mph /  11.7km/h 15mph /  24.1km/h 82% 0.00in /  0mm 93 W/m2
10:44 53 °F /  11.7 °C 47.7 °F /  8.7 °C 29.50in /  998.9hPa WSW 8.4mph /  13.5km/h 14mph /  22.5km/h 82.3% 0.00in /  0mm 51 W/m2
10:49 52.9 °F /  11.6 °C 47.8 °F /  8.8 °C 29.51in /  999.2hPa SW 7.2mph /  11.6km/h 14mph /  22.5km/h 83% 0.00in /  0mm 32 W/m2
10:54 52.5 °F /  11.4 °C 47.7 °F /  8.7 °C 29.51in /  999.2hPa WSW 10.5mph /  16.9km/h 18mph /  29km/h 83.7% 0.01in /  0.25mm 60 W/m2
10:59 52.1 °F /  11.2 °C 47.7 °F /  8.7 °C 29.51in /  999.2hPa WSW 7.5mph /  12.1km/h 18mph /  29km/h 84.9% 0.02in /  0.51mm 95 W/m2
11:04 51.9 °F /  11.1 °C 47.7 °F /  8.7 °C 29.51in /  999.2hPa WSW 4.7mph /  7.6km/h 15mph /  24.1km/h 85.6% 0.02in /  0.51mm 90 W/m2
11:09 51.5 °F /  10.8 °C 47.5 °F /  8.6 °C 29.51in /  999.2hPa WSW 9mph /  14.5km/h 16mph /  25.7km/h 86% 0.02in /  0.51mm 151 W/m2
11:14 51.3 °F /  10.7 °C 47.3 °F /  8.5 °C 29.51in /  999.2hPa West 8mph /  12.9km/h 16mph /  25.7km/h 86% 0.02in /  0.51mm 336 W/m2
11:19 51.4 °F /  10.8 °C 47.5 °F /  8.6 °C 29.51in /  999.2hPa WSW 7.9mph /  12.7km/h 16mph /  25.7km/h 86% 0.02in /  0.51mm 336 W/m2
11:24 51.6 °F /  10.9 °C 47.5 °F /  8.6 °C 29.50in /  998.9hPa WSW 5mph /  8km/h 12mph /  19.3km/h 86% 0.02in /  0.51mm 234 W/m2
11:29 51.7 °F /  10.9 °C 47.6 °F /  8.7 °C 29.50in /  998.9hPa WSW 6.2mph /  10km/h 13mph /  20.9km/h 86% 0.02in /  0.51mm 192 W/m2
11:34 51.9 °F /  11.1 °C 47.8 °F /  8.8 °C 29.49in /  998.5hPa WSW 4.4mph /  7.1km/h 9mph /  14.5km/h 86.1% 0.02in /  0.51mm 287 W/m2
11:39 52.1 °F /  11.2 °C 48.3 °F /  9.1 °C 29.49in /  998.5hPa WSW 3.7mph /  6km/h 8mph /  12.9km/h 87% 0.02in /  0.51mm 267 W/m2
11:44 52.3 °F /  11.3 °C 48.3 °F /  9.1 °C 29.49in /  998.5hPa SW 5.6mph /  9km/h 12mph /  19.3km/h 86.4% 0.02in /  0.51mm 267 W/m2
11:49 52.6 °F /  11.4 °C 48.4 °F /  9.1 °C 29.49in /  998.5hPa SW 6.7mph /  10.8km/h 18mph /  29km/h 85.8% 0.02in /  0.51mm 311 W/m2
11:54 53.1 °F /  11.7 °C 48.7 °F /  9.3 °C 29.49in /  998.5hPa WSW 8.2mph /  13.2km/h 16mph /  25.7km/h 84.8% 0.02in /  0.51mm 492 W/m2
11:59 53.6 °F /  12 °C 48.8 °F /  9.3 °C 29.50in /  998.9hPa SW 7.5mph /  12.1km/h 19mph /  30.6km/h 83.6% 0.01in /  0.25mm 376 W/m2
12:04 54.1 °F /  12.3 °C 48.9 °F /  9.4 °C 29.49in /  998.5hPa SW 10.8mph /  17.4km/h 20mph /  32.2km/h 82.6% 0.01in /  0.25mm 464 W/m2
12:09 54.1 °F /  12.3 °C 48.7 °F /  9.3 °C 29.49in /  998.5hPa WSW 9.1mph /  14.6km/h 20mph /  32.2km/h 81.9% 0.00in /  0mm 399 W/m2
12:14 54.2 °F /  12.3 °C 48.7 °F /  9.3 °C 29.49in /  998.5hPa WSW 10mph /  16.1km/h 16mph /  25.7km/h 81.5% 0.00in /  0mm 399 W/m2
12:19 54.1 °F /  12.3 °C 48.7 °F /  9.3 °C 29.49in /  998.5hPa SW 8.6mph /  13.8km/h 15mph /  24.1km/h 82% 0.00in /  0mm 230 W/m2
12:24 54.1 °F /  12.3 °C 48.7 °F /  9.3 °C 29.49in /  998.5hPa WSW 9mph /  14.5km/h 15mph /  24.1km/h 82% 0.00in /  0mm 403 W/m2
12:29 54.4 °F /  12.4 °C 49.3 °F /  9.6 °C 29.49in /  998.5hPa WSW 7.1mph /  11.4km/h 15mph /  24.1km/h 82.9% 0.00in /  0mm 603 W/m2
12:34 54.9 °F /  12.7 °C 49.8 °F /  9.9 °C 29.49in /  998.5hPa WSW 6.8mph /  10.9km/h 11mph /  17.7km/h 82.8% 0.00in /  0mm 603 W/m2
12:39 55 °F /  12.8 °C 49.6 °F /  9.8 °C 29.49in /  998.5hPa SW 10.3mph /  16.6km/h 20mph /  32.2km/h 81.9% 0.00in /  0mm 209 W/m2
12:44 55.2 °F /  12.9 °C 49.3 °F /  9.6 °C 29.49in /  998.5hPa SW 8mph /  12.9km/h 20mph /  32.2km/h 80.5% 0.00in /  0mm 343 W/m2
12:49 55.8 °F /  13.2 °C 49.6 °F /  9.8 °C 29.49in /  998.5hPa SW 7mph /  11.3km/h 15mph /  24.1km/h 79.9% 0.00in /  0mm 601 W/m2
12:54 56.4 °F /  13.6 °C 49.6 °F /  9.8 °C 29.49in /  998.5hPa WSW 9.8mph /  15.8km/h 15mph /  24.1km/h 78% 0.00in /  0mm 573 W/m2
12:59 56.9 °F /  13.8 °C 49.5 °F /  9.7 °C 29.49in /  998.5hPa WSW 10mph /  16.1km/h 20mph /  32.2km/h 76.5% 0.00in /  0mm 515 W/m2
13:04 56.9 °F /  13.8 °C 48.9 °F /  9.4 °C 29.49in /  998.5hPa SW 10.9mph /  17.5km/h 20mph /  32.2km/h 74.6% 0.00in /  0mm 613 W/m2
13:09 57.2 °F /  14 °C 49 °F /  9.4 °C 29.49in /  998.5hPa SW 9.4mph /  15.1km/h 22mph /  35.4km/h 74.1% 0.00in /  0mm 580 W/m2
13:14 57.5 °F /  14.2 °C 49.1 °F /  9.5 °C 29.48in /  998.2hPa WSW 10mph /  16.1km/h 20mph /  32.2km/h 73.9% 0.00in /  0mm 640 W/m2
13:19 57.6 °F /  14.2 °C 48.8 °F /  9.3 °C 29.48in /  998.2hPa SW 9mph /  14.5km/h 20mph /  32.2km/h 72.7% 0.00in /  0mm 253 W/m2
13:24 57.4 °F /  14.1 °C 48.4 °F /  9.1 °C 29.48in /  998.2hPa WSW 9.1mph /  14.6km/h 17mph /  27.4km/h 72% 0.00in /  0mm 225 W/m2
13:29 57.5 °F /  14.2 °C 48.6 °F /  9.2 °C 29.48in /  998.2hPa WSW 7.4mph /  11.9km/h 14mph /  22.5km/h 72.3% 0.00in /  0mm 211 W/m2
13:34 57.3 °F /  14.1 °C 48.2 °F /  9 °C 29.48in /  998.2hPa SW 12.6mph /  20.3km/h 21mph /  33.8km/h 71.8% 0.00in /  0mm 258 W/m2
13:39 57.2 °F /  14 °C 48.1 °F /  8.9 °C 29.48in /  998.2hPa SW 10.9mph /  17.5km/h 21mph /  33.8km/h 71.5% 0.00in /  0mm 404 W/m2
13:44 57.5 °F /  14.2 °C 48.1 °F /  8.9 °C 29.48in /  998.2hPa WSW 9.4mph /  15.1km/h 20mph /  32.2km/h 71% 0.00in /  0mm 431 W/m2
13:49 57.3 °F /  14.1 °C 48 °F /  8.9 °C 29.48in /  998.2hPa SW 8.7mph /  14km/h 18mph /  29km/h 71.1% 0.00in /  0mm 283 W/m2
13:54 56.9 °F /  13.8 °C 47.9 °F /  8.8 °C 29.48in /  998.2hPa WSW 8.6mph /  13.8km/h 17mph /  27.4km/h 72% 0.00in /  0mm 165 W/m2
13:59 56.8 °F /  13.8 °C 48 °F /  8.9 °C 29.48in /  998.2hPa WSW 10.2mph /  16.4km/h 21mph /  33.8km/h 72.6% 0.00in /  0mm 668 W/m2
14:04 57.5 °F /  14.2 °C 49.1 °F /  9.5 °C 29.48in /  998.2hPa WSW 7mph /  11.3km/h 13mph /  20.9km/h 73.7% 0.00in /  0mm 668 W/m2
14:09 58.4 °F /  14.7 °C 49.2 °F /  9.6 °C 29.47in /  997.9hPa WSW 10.6mph /  17.1km/h 22mph /  35.4km/h 71.7% 0.00in /  0mm 629 W/m2
14:14 58.8 °F /  14.9 °C 49.3 °F /  9.6 °C 29.47in /  997.9hPa WSW 9.3mph /  15km/h 20mph /  32.2km/h 70.6% 0.00in /  0mm 564 W/m2
14:19 58.2 °F /  14.6 °C 48.4 °F /  9.1 °C 29.48in /  998.2hPa WSW 14.2mph /  22.9km/h 23mph /  37km/h 70% 0.00in /  0mm 142 W/m2
14:24 57.6 °F /  14.2 °C 48.1 °F /  8.9 °C 29.48in /  998.2hPa SW 10.6mph /  17.1km/h 23mph /  37km/h 70.7% 0.00in /  0mm 130 W/m2
14:29 57.3 °F /  14.1 °C 48.5 °F /  9.2 °C 29.48in /  998.2hPa WSW 8.5mph /  13.7km/h 20mph /  32.2km/h 72.8% 0.00in /  0mm 232 W/m2
14:34 56.7 °F /  13.7 °C 48.6 °F /  9.2 °C 29.47in /  997.9hPa SW 11.6mph /  18.7km/h 24mph /  38.6km/h 74.4% 0.01in /  0.25mm 387 W/m2
14:39 56.9 °F /  13.8 °C 48.9 °F /  9.4 °C 29.47in /  997.9hPa SW 7.1mph /  11.4km/h 16mph /  25.7km/h 75% 0.01in /  0.25mm 422 W/m2
14:44 57.6 °F /  14.2 °C 49.4 °F /  9.7 °C 29.47in /  997.9hPa SW 10.2mph /  16.4km/h 20mph /  32.2km/h 74.3% 0.01in /  0.25mm 489 W/m2
14:49 57.8 °F /  14.3 °C 49 °F /  9.4 °C 29.47in /  997.9hPa SW 9.3mph /  15km/h 18mph /  29km/h 72.6% 0.01in /  0.25mm 520 W/m2
14:54 58.2 °F /  14.6 °C 49.4 °F /  9.7 °C 29.47in /  997.9hPa SW 7.4mph /  11.9km/h 16mph /  25.7km/h 72.7% 0.01in /  0.25mm 457 W/m2
14:59 57.9 °F /  14.4 °C 48.9 °F /  9.4 °C 29.47in /  997.9hPa SW 12.1mph /  19.5km/h 18mph /  29km/h 72% 0.01in /  0.25mm 457 W/m2
15:04 57.5 °F /  14.2 °C 48.9 °F /  9.4 °C 29.47in /  997.9hPa SW 9.7mph /  15.6km/h 15mph /  24.1km/h 73.3% 0.01in /  0.25mm 135 W/m2
15:09 57.1 °F /  13.9 °C 48.8 °F /  9.3 °C 29.46in /  997.5hPa SW 11.1mph /  17.9km/h 18mph /  29km/h 74% 0.01in /  0.25mm 260 W/m2
15:14 57.6 °F /  14.2 °C 49.4 °F /  9.7 °C 29.46in /  997.5hPa SW 8.5mph /  13.7km/h 17mph /  27.4km/h 74% 0.01in /  0.25mm 512 W/m2
15:19 58.3 °F /  14.6 °C 49.6 °F /  9.8 °C 29.46in /  997.5hPa SW 7.8mph /  12.6km/h 17mph /  27.4km/h 73% 0.01in /  0.25mm 371 W/m2
15:24 58.2 °F /  14.6 °C 49.2 °F /  9.6 °C 29.46in /  997.5hPa SW 13.2mph /  21.2km/h 22mph /  35.4km/h 72.1% 0.01in /  0.25mm 186 W/m2
15:29 57.7 °F /  14.3 °C 48.7 °F /  9.3 °C 29.46in /  997.5hPa SW 11.6mph /  18.7km/h 22mph /  35.4km/h 72% 0.01in /  0.25mm 366 W/m2
15:34 58 °F /  14.4 °C 49 °F /  9.4 °C 29.46in /  997.5hPa SW 8.4mph /  13.5km/h 19mph /  30.6km/h 72% 0.00in /  0mm 366 W/m2
15:39 58.1 °F /  14.5 °C 48.4 °F /  9.1 °C 29.47in /  997.9hPa SW 14.7mph /  23.7km/h 23mph /  37km/h 70.1% 0.00in /  0mm 325 W/m2
15:44 57.9 °F /  14.4 °C 48.2 °F /  9 °C 29.47in /  997.9hPa SW 10mph /  16.1km/h 23mph /  37km/h 70% 0.00in /  0mm 359 W/m2
15:49 57.9 °F /  14.4 °C 48.7 °F /  9.3 °C 29.46in /  997.5hPa SW 6.6mph /  10.6km/h 15mph /  24.1km/h 71.2% 0.00in /  0mm 308 W/m2
15:54 57.9 °F /  14.4 °C 48.9 °F /  9.4 °C 29.46in /  997.5hPa SW 12.4mph /  20km/h 23mph /  37km/h 72% 0.00in /  0mm 295 W/m2
15:59 57.7 °F /  14.3 °C 48.8 °F /  9.3 °C 29.46in /  997.5hPa SW 10.3mph /  16.6km/h 21mph /  33.8km/h 72.3% 0.00in /  0mm 292 W/m2
16:04 57.7 °F /  14.3 °C 49.1 °F /  9.5 °C 29.46in /  997.5hPa SW 10.3mph /  16.6km/h 18mph /  29km/h 73% 0.00in /  0mm 264 W/m2
16:09 57.7 °F /  14.3 °C 49.1 °F /  9.5 °C 29.46in /  997.5hPa SW 9.6mph /  15.4km/h 18mph /  29km/h 73% 0.00in /  0mm 250 W/m2
16:14 57.8 °F /  14.3 °C 49.2 °F /  9.6 °C 29.46in /  997.5hPa SW 12mph /  19.3km/h 22mph /  35.4km/h 73% 0.00in /  0mm 232 W/m2
16:19 57.9 °F /  14.4 °C 49 °F /  9.4 °C 29.46in /  997.5hPa SW 10.5mph /  16.9km/h 22mph /  35.4km/h 72.2% 0.00in /  0mm 227 W/m2
16:24 57.9 °F /  14.4 °C 48.9 °F /  9.4 °C 29.46in /  997.5hPa SW 10.6mph /  17.1km/h 23mph /  37km/h 72% 0.00in /  0mm 227 W/m2
16:29 58 °F /  14.4 °C 49 °F /  9.4 °C 29.46in /  997.5hPa SW 11.9mph /  19.2km/h 21mph /  33.8km/h 72% 0.00in /  0mm 197 W/m2
16:34 57.7 °F /  14.3 °C 48.6 °F /  9.2 °C 29.46in /  997.5hPa WSW 11.1mph /  17.9km/h 21mph /  33.8km/h 71.7% 0.00in /  0mm 179 W/m2
16:39 57.7 °F /  14.3 °C 48.7 °F /  9.3 °C 29.46in /  997.5hPa SW 8.1mph /  13km/h 20mph /  32.2km/h 72% 0.00in /  0mm 148 W/m2
16:44 57.6 °F /  14.2 °C 48.6 °F /  9.2 °C 29.46in /  997.5hPa SW 9.5mph /  15.3km/h 16mph /  25.7km/h 72% 0.00in /  0mm 163 W/m2
16:49 57.5 °F /  14.2 °C 48.5 °F /  9.2 °C 29.46in /  997.5hPa SW 10.9mph /  17.5km/h 22mph /  35.4km/h 72% 0.00in /  0mm 174 W/m2
16:54 57.3 °F /  14.1 °C 48.5 °F /  9.2 °C 29.46in /  997.5hPa SW 9.1mph /  14.6km/h 22mph /  35.4km/h 72.6% 0.00in /  0mm 58 W/m2
16:59 57.2 °F /  14 °C 48.6 °F /  9.2 °C 29.46in /  997.5hPa SW 9.1mph /  14.6km/h 16mph /  25.7km/h 73% 0.00in /  0mm 79 W/m2
17:04 57.1 °F /  13.9 °C 48.3 °F /  9.1 °C 29.46in /  997.5hPa SW 7.2mph /  11.6km/h 17mph /  27.4km/h 72.6% 0.00in /  0mm 54 W/m2
17:09 57 °F /  13.9 °C 48 °F /  8.9 °C 29.45in /  997.2hPa SW 8.6mph /  13.8km/h 16mph /  25.7km/h 72% 0.00in /  0mm 42 W/m2
17:14 56.9 °F /  13.8 °C 47.9 °F /  8.8 °C 29.46in /  997.5hPa SW 8.1mph /  13km/h 18mph /  29km/h 72% 0.00in /  0mm 63 W/m2
17:19 56.8 °F /  13.8 °C 47.8 °F /  8.8 °C 29.46in /  997.5hPa SW 10.2mph /  16.4km/h 18mph /  29km/h 72% 0.00in /  0mm 63 W/m2
17:24 56.7 °F /  13.7 °C 47.7 °F /  8.7 °C 29.46in /  997.5hPa SW 11.4mph /  18.3km/h 20mph /  32.2km/h 72% 0.00in /  0mm 53 W/m2
17:29 56.5 °F /  13.6 °C 47.7 °F /  8.7 °C 29.46in /  997.5hPa SW 12.3mph /  19.8km/h 22mph /  35.4km/h 72.4% 0.00in /  0mm 32 W/m2
17:34 56.1 °F /  13.4 °C 47.8 °F /  8.8 °C 29.46in /  997.5hPa SW 9.4mph /  15.1km/h 22mph /  35.4km/h 73.2% 0.00in /  0mm 28 W/m2
17:39 55.9 °F /  13.3 °C 47.8 °F /  8.8 °C 29.46in /  997.5hPa SW 10.7mph /  17.2km/h 18mph /  29km/h 74.2% 0.00in /  0mm 21 W/m2
17:44 55.8 °F /  13.2 °C 48 °F /  8.9 °C 29.46in /  997.5hPa SW 13.4mph /  21.6km/h 21mph /  33.8km/h 75% 0.00in /  0mm 18 W/m2
17:49 55.6 °F /  13.1 °C 47.6 °F /  8.7 °C 29.46in /  997.5hPa SW 12.5mph /  20.1km/h 22mph /  35.4km/h 74.5% 0.00in /  0mm 16 W/m2
17:54 55.4 °F /  13 °C 47.3 °F /  8.5 °C 29.46in /  997.5hPa SW 10.3mph /  16.6km/h 22mph /  35.4km/h 74% 0.00in /  0mm 14 W/m2
17:59 55.2 °F /  12.9 °C 47.1 °F /  8.4 °C 29.46in /  997.5hPa SW 11mph /  17.7km/h 18mph /  29km/h 74% 0.00in /  0mm 11 W/m2
18:04 55 °F /  12.8 °C 47 °F /  8.3 °C 29.46in /  997.5hPa SW 7.9mph /  12.7km/h 18mph /  29km/h 74.2% 0.00in /  0mm 9 W/m2
18:09 54.9 °F /  12.7 °C 47.1 °F /  8.4 °C 29.46in /  997.5hPa SW 9.9mph /  15.9km/h 17mph /  27.4km/h 75.1% 0.00in /  0mm 7 W/m2
18:14 54.9 °F /  12.7 °C 47.5 °F /  8.6 °C 29.46in /  997.5hPa SW 11.9mph /  19.2km/h 25mph /  40.2km/h 76% 0.00in /  0mm 0 W/m2
18:19 54.7 °F /  12.6 °C 47.6 °F /  8.7 °C 29.45in /  997.2hPa SW 7.7mph /  12.4km/h 15mph /  24.1km/h 76.7% 0.00in /  0mm 0 W/m2
18:24 54.6 °F /  12.6 °C 47.7 °F /  8.7 °C 29.46in /  997.5hPa SW 10mph /  16.1km/h 17mph /  27.4km/h 77.1% 0.00in /  0mm 0 W/m2
18:29 54.4 °F /  12.4 °C 47.7 °F /  8.7 °C 29.45in /  997.2hPa SW 5.2mph /  8.4km/h 17mph /  27.4km/h 78% 0.00in /  0mm 0 W/m2
18:34 54.2 °F /  12.3 °C 47.8 °F /  8.8 °C 29.45in /  997.2hPa SW 8.6mph /  13.8km/h 17mph /  27.4km/h 78.8% 0.00in /  0mm 0 W/m2
18:39 54.1 °F /  12.3 °C 47.9 °F /  8.8 °C 29.45in /  997.2hPa SW 7.6mph /  12.2km/h 17mph /  27.4km/h 79.6% 0.00in /  0mm 0 W/m2
18:44 54 °F /  12.2 °C 48 °F /  8.9 °C 29.46in /  997.5hPa SW 7.3mph /  11.7km/h 14mph /  22.5km/h 80% 0.00in /  0mm 0 W/m2
18:49 54 °F /  12.2 °C 48.1 °F /  8.9 °C 29.46in /  997.5hPa SW 6.2mph /  10km/h 16mph /  25.7km/h 80.4% 0.00in /  0mm 0 W/m2
18:54 53.8 °F /  12.1 °C 48 °F /  8.9 °C 29.46in /  997.5hPa SW 5.7mph /  9.2km/h 14mph /  22.5km/h 81% 0.00in /  0mm 0 W/m2
18:59 53.8 °F /  12.1 °C 48 °F /  8.9 °C 29.45in /  997.2hPa SW 5.3mph /  8.5km/h 14mph /  22.5km/h 81% 0.00in /  0mm 0 W/m2
19:04 53.9 °F /  12.2 °C 48.1 °F /  8.9 °C 29.45in /  997.2hPa SW 6.2mph /  10km/h 12mph /  19.3km/h 81% 0.00in /  0mm 0 W/m2
19:09 54 °F /  12.2 °C 48.2 °F /  9 °C 29.46in /  997.5hPa SW 7.5mph /  12.1km/h 17mph /  27.4km/h 81% 0.00in /  0mm 0 W/m2
19:14 54 °F /  12.2 °C 48.2 °F /  9 °C 29.46in /  997.5hPa SW 5.3mph /  8.5km/h 13mph /  20.9km/h 81% 0.00in /  0mm 0 W/m2
19:19 54 °F /  12.2 °C 48.2 °F /  9 °C 29.46in /  997.5hPa SW 6.2mph /  10km/h 12mph /  19.3km/h 81% 0.00in /  0mm 0 W/m2
19:24 54 °F /  12.2 °C 48.2 °F /  9 °C 29.46in /  997.5hPa SW 6.5mph /  10.5km/h 13mph /  20.9km/h 81% 0.00in /  0mm 0 W/m2
19:29 54 °F /  12.2 °C 48.1 °F /  8.9 °C 29.46in /  997.5hPa SW 5.2mph /  8.4km/h 13mph /  20.9km/h 80.6% 0.00in /  0mm 0 W/m2
19:34 54 °F /  12.2 °C 48.1 °F /  8.9 °C 29.46in /  997.5hPa SW 5mph /  8km/h 13mph /  20.9km/h 80.3% 0.00in /  0mm 0 W/m2
19:39 54 °F /  12.2 °C 48.2 °F /  9 °C 29.46in /  997.5hPa SW 7.9mph /  12.7km/h 21mph /  33.8km/h 81% 0.00in /  0mm 0 W/m2
19:44 54 °F /  12.2 °C 48 °F /  8.9 °C 29.46in /  997.5hPa SW 6.1mph /  9.8km/h 12mph /  19.3km/h 80.1% 0.00in /  0mm 0 W/m2
19:49 54 °F /  12.2 °C 48.1 °F /  8.9 °C 29.46in /  997.5hPa SW 6.4mph /  10.3km/h 13mph /  20.9km/h 80.6% 0.00in /  0mm 0 W/m2
19:54 54 °F /  12.2 °C 48.2 °F /  9 °C 29.46in /  997.5hPa SW 6.6mph /  10.6km/h 14mph /  22.5km/h 81% 0.00in /  0mm 0 W/m2
19:59 54 °F /  12.2 °C 48.2 °F /  9 °C 29.46in /  997.5hPa SW 8.3mph /  13.4km/h 17mph /  27.4km/h 81% 0.00in /  0mm 0 W/m2
20:04 54 °F /  12.2 °C 48.2 °F /  9 °C 29.46in /  997.5hPa SW 7.4mph /  11.9km/h 17mph /  27.4km/h 81% 0.00in /  0mm 0 W/m2
20:09 54 °F /  12.2 °C 48.2 °F /  9 °C 29.46in /  997.5hPa SW 3.7mph /  6km/h 9mph /  14.5km/h 81% 0.00in /  0mm 0 W/m2
20:14 53.9 °F /  12.2 °C 48.1 °F /  8.9 °C 29.46in /  997.5hPa SW 3.4mph /  5.5km/h 12mph /  19.3km/h 81.2% 0.00in /  0mm 0 W/m2
20:19 53.8 °F /  12.1 °C 48.4 °F /  9.1 °C 29.46in /  997.5hPa SW 4.5mph /  7.2km/h 12mph /  19.3km/h 82% 0.00in /  0mm 0 W/m2
20:24 53.8 °F /  12.1 °C 48.4 °F /  9.1 °C 29.46in /  997.5hPa SW 7.1mph /  11.4km/h 15mph /  24.1km/h 82% 0.00in /  0mm 0 W/m2
20:29 53.8 °F /  12.1 °C 48.4 °F /  9.1 °C 29.47in /  997.9hPa SW 4.1mph /  6.6km/h 12mph /  19.3km/h 82% 0.00in /  0mm 0 W/m2
20:34 53.8 °F /  12.1 °C 48.4 °F /  9.1 °C 29.47in /  997.9hPa SW 5.5mph /  8.9km/h 13mph /  20.9km/h 82% 0.00in /  0mm 0 W/m2
20:39 53.8 °F /  12.1 °C 48.4 °F /  9.1 °C 29.47in /  997.9hPa SW 5.5mph /  8.9km/h 9mph /  14.5km/h 82% 0.00in /  0mm 0 W/m2
20:44 53.7 °F /  12.1 °C 48.3 °F /  9.1 °C 29.46in /  997.5hPa SW 5.4mph /  8.7km/h 13mph /  20.9km/h 82% 0.00in /  0mm 0 W/m2
20:49 53.6 °F /  12 °C 48.2 °F /  9 °C 29.46in /  997.5hPa SW 4.7mph /  7.6km/h 10mph /  16.1km/h 82% 0.00in /  0mm 0 W/m2
20:54 53.5 °F /  11.9 °C 48.1 °F /  8.9 °C 29.46in /  997.5hPa SW 4.9mph /  7.9km/h 9mph /  14.5km/h 82% 0.00in /  0mm 0 W/m2
20:59 53.4 °F /  11.9 °C 48 °F /  8.9 °C 29.46in /  997.5hPa SW 4.7mph /  7.6km/h 9mph /  14.5km/h 82% 0.00in /  0mm 0 W/m2
21:04 53.3 °F /  11.8 °C 47.6 °F /  8.7 °C 29.46in /  997.5hPa WSW 3.1mph /  5km/h 7mph /  11.3km/h 81.1% 0.00in /  0mm 0 W/m2
21:09 53.2 °F /  11.8 °C 47.5 °F /  8.6 °C 29.47in /  997.9hPa WSW 3.7mph /  6km/h 8mph /  12.9km/h 81% 0.00in /  0mm 0 W/m2
21:14 53.1 °F /  11.7 °C 47.5 °F /  8.6 °C 29.47in /  997.9hPa WSW 3.3mph /  5.3km/h 8mph /  12.9km/h 81.4% 0.00in /  0mm 0 W/m2
21:19 53.1 °F /  11.7 °C 47.6 °F /  8.7 °C 29.47in /  997.9hPa WSW 4.3mph /  6.9km/h 10mph /  16.1km/h 81.7% 0.00in /  0mm 0 W/m2
21:24 53.1 °F /  11.7 °C 47.5 °F /  8.6 °C 29.47in /  997.9hPa SW 3.6mph /  5.8km/h 8mph /  12.9km/h 81.5% 0.00in /  0mm 0 W/m2
21:29 53.1 °F /  11.7 °C 47.3 °F /  8.5 °C 29.47in /  997.9hPa SW 5.9mph /  9.5km/h 11mph /  17.7km/h 81% 0.00in /  0mm 0 W/m2
21:34 53.1 °F /  11.7 °C 47.3 °F /  8.5 °C 29.47in /  997.9hPa SW 6.3mph /  10.1km/h 14mph /  22.5km/h 81% 0.00in /  0mm 0 W/m2
21:39 53.2 °F /  11.8 °C 47.5 °F /  8.6 °C 29.47in /  997.9hPa WSW 6.7mph /  10.8km/h 14mph /  22.5km/h 81% 0.00in /  0mm 0 W/m2
21:44 53.2 °F /  11.8 °C 47.5 °F /  8.6 °C 29.47in /  997.9hPa SW 5.7mph /  9.2km/h 13mph /  20.9km/h 81% 0.00in /  0mm 0 W/m2
21:49 53.1 °F /  11.7 °C 47.3 °F /  8.5 °C 29.47in /  997.9hPa SW 3.9mph /  6.3km/h 9mph /  14.5km/h 81% 0.00in /  0mm 0 W/m2
21:54 52.9 °F /  11.6 °C 47.3 °F /  8.5 °C 29.47in /  997.9hPa SW 3.9mph /  6.3km/h 9mph /  14.5km/h 81% 0.00in /  0mm 0 W/m2
21:59 52.9 °F /  11.6 °C 47.3 °F /  8.5 °C 29.47in /  997.9hPa SW 3.3mph /  5.3km/h 9mph /  14.5km/h 81.2% 0.00in /  0mm 0 W/m2
22:04 52.9 °F /  11.6 °C 47.5 °F /  8.6 °C 29.47in /  997.9hPa SW 5.2mph /  8.4km/h 10mph /  16.1km/h 82% 0.00in /  0mm 0 W/m2
22:09 52.9 °F /  11.6 °C 47.5 °F /  8.6 °C 29.47in /  997.9hPa SW 5mph /  8km/h 8mph /  12.9km/h 82% 0.00in /  0mm 0 W/m2
22:14 52.7 °F /  11.5 °C 47.3 °F /  8.5 °C 29.47in /  997.9hPa WSW 3.7mph /  6km/h 9mph /  14.5km/h 82% 0.00in /  0mm 0 W/m2
22:19 52.5 °F /  11.4 °C 47.1 °F /  8.4 °C 29.47in /  997.9hPa SW 4.1mph /  6.6km/h 9mph /  14.5km/h 82% 0.00in /  0mm 0 W/m2
22:24 52.3 °F /  11.3 °C 47.2 °F /  8.4 °C 29.47in /  997.9hPa SW 3.4mph /  5.5km/h 9mph /  14.5km/h 82.8% 0.00in /  0mm 0 W/m2
22:29 52.3 °F /  11.3 °C 47.3 °F /  8.5 °C 29.47in /  997.9hPa SW 6.3mph /  10.1km/h 13mph /  20.9km/h 83% 0.00in /  0mm 0 W/m2
22:34 52.3 °F /  11.3 °C 47.3 °F /  8.5 °C 29.47in /  997.9hPa SW 1.5mph /  2.4km/h 13mph /  20.9km/h 83% 0.00in /  0mm 0 W/m2
22:39 52.3 °F /  11.3 °C 47.3 °F /  8.5 °C 29.47in /  997.9hPa SW 3.5mph /  5.6km/h 8mph /  12.9km/h 83% 0.00in /  0mm 0 W/m2
22:44 52.3 °F /  11.3 °C 47.2 °F /  8.4 °C 29.47in /  997.9hPa SSW 2.4mph /  3.9km/h 6mph /  9.7km/h 83% 0.00in /  0mm 0 W/m2
22:49 52.2 °F /  11.2 °C 47.1 °F /  8.4 °C 29.47in /  997.9hPa SSW 2.3mph /  3.7km/h 6mph /  9.7km/h 83% 0.00in /  0mm 0 W/m2
22:54 52.1 °F /  11.2 °C 47 °F /  8.3 °C 29.46in /  997.5hPa SW 2.8mph /  4.5km/h 6mph /  9.7km/h 83% 0.00in /  0mm 0 W/m2
22:59 52 °F /  11.1 °C 46.9 °F /  8.3 °C 29.46in /  997.5hPa SW 2.2mph /  3.5km/h 7mph /  11.3km/h 83% 0.00in /  0mm 0 W/m2
23:04 52 °F /  11.1 °C 46.9 °F /  8.3 °C 29.46in /  997.5hPa SW 3mph /  4.8km/h 6mph /  9.7km/h 83% 0.00in /  0mm 0 W/m2
23:09 52 °F /  11.1 °C 46.9 °F /  8.3 °C 29.46in /  997.5hPa SW 3.1mph /  5km/h 9mph /  14.5km/h 83% 0.00in /  0mm 0 W/m2
23:14 51.8 °F /  11 °C 46.8 °F /  8.2 °C 29.46in /  997.5hPa SW 3.3mph /  5.3km/h 7mph /  11.3km/h 83% 0.00in /  0mm 0 W/m2
23:19 51.7 °F /  10.9 °C 46.7 °F /  8.2 °C 29.46in /  997.5hPa SW 2.7mph /  4.3km/h 6mph /  9.7km/h 83% 0.00in /  0mm 0 W/m2
23:24 51.6 °F /  10.9 °C 46.6 °F /  8.1 °C 29.46in /  997.5hPa WSW 1.5mph /  2.4km/h 7mph /  11.3km/h 83% 0.00in /  0mm 0 W/m2
23:29 51.6 °F /  10.9 °C 46.6 °F /  8.1 °C 29.46in /  997.5hPa SW 3.2mph /  5.1km/h 6mph /  9.7km/h 83% 0.00in /  0mm 0 W/m2
23:34 51.6 °F /  10.9 °C 46.6 °F /  8.1 °C 29.46in /  997.5hPa SW 1.7mph /  2.7km/h 6mph /  9.7km/h 83% 0.00in /  0mm 0 W/m2
23:39 51.6 °F /  10.9 °C 46.6 °F /  8.1 °C 29.46in /  997.5hPa SW 1.5mph /  2.4km/h 6mph /  9.7km/h 83% 0.00in /  0mm 0 W/m2
23:44 51.4 °F /  10.8 °C 46.4 °F /  8 °C 29.46in /  997.5hPa Calm   2mph /  3.2km/h 83.1% 0.00in /  0mm 0 W/m2
23:49 51.4 °F /  10.8 °C 46.8 °F /  8.2 °C 29.46in /  997.5hPa SW 3.1mph /  5km/h 6mph /  9.7km/h 84% 0.00in /  0mm 0 W/m2
23:54 51.5 °F /  10.8 °C 46.8 °F /  8.2 °C 29.46in /  997.5hPa West 2.6mph /  4.2km/h 7mph /  11.3km/h 84% 0.00in /  0mm 0 W/m2
23:59 51.4 °F /  10.8 °C 46.8 °F /  8.2 °C 29.46in /  997.5hPa West 1.1mph /  1.8km/h 4mph /  6.4km/h 84% 0.00in /  0mm 0 W/m2
Bath Spa Weather
Compliments of Weather Underground - 2 mb